createdAt,value
2017-01-01T00:00:33.966Z,0
2017-01-01T00:01:43.431Z,0
2017-01-01T00:02:53.283Z,0
2017-01-01T00:04:02.373Z,0
2017-01-01T00:05:11.837Z,0
2017-01-01T00:06:20.921Z,0
2017-01-01T00:07:30.032Z,0
2017-01-01T00:08:39.507Z,0
2017-01-01T00:09:48.981Z,0
2017-01-01T00:10:57.663Z,0
2017-01-01T00:12:06.761Z,0
2017-01-01T00:13:16.626Z,0
2017-01-01T00:14:26.113Z,0
2017-01-01T00:15:35.196Z,0
2017-01-01T00:16:44.287Z,0
2017-01-01T00:17:53.374Z,0
2017-01-01T00:19:02.448Z,0
2017-01-01T00:20:12.304Z,0
2017-01-01T00:21:21.017Z,0
2017-01-01T00:22:30.096Z,0
2017-01-01T00:23:38.794Z,0
2017-01-01T00:24:48.645Z,0
2017-01-01T00:25:58.135Z,0
2017-01-01T00:27:08.335Z,0
2017-01-01T00:28:17.791Z,0
2017-01-01T00:29:26.475Z,0
2017-01-01T00:30:35.559Z,0
2017-01-01T00:31:44.258Z,0
2017-01-01T00:32:53.719Z,0
2017-01-01T00:34:02.795Z,0
2017-01-01T00:35:11.892Z,0
2017-01-01T00:36:20.977Z,0
2017-01-01T00:37:30.827Z,0
2017-01-01T00:38:39.901Z,0
2017-01-01T00:39:49.378Z,0
2017-01-01T00:40:58.065Z,0
2017-01-01T00:42:07.156Z,0
2017-01-01T00:43:16.226Z,0
2017-01-01T00:44:25.306Z,0
2017-01-01T00:45:34.382Z,0
2017-01-01T00:46:43.065Z,0
2017-01-01T00:47:51.755Z,0
2017-01-01T00:49:00.824Z,0
2017-01-01T00:50:09.497Z,0
2017-01-01T00:51:19.742Z,0
2017-01-01T00:52:28.841Z,0
2017-01-01T00:53:38.307Z,0
2017-01-01T00:54:47.390Z,0
2017-01-01T00:55:56.474Z,0
2017-01-01T00:57:05.172Z,0
2017-01-01T00:58:14.237Z,0
2017-01-01T00:59:23.304Z,0
2017-01-01T01:00:32.378Z,0
2017-01-01T01:01:41.519Z,0
2017-01-01T01:02:51.009Z,0
2017-01-01T01:03:59.684Z,0
2017-01-01T01:05:09.548Z,0
2017-01-01T01:06:18.614Z,0
2017-01-01T01:07:28.077Z,0
2017-01-01T01:08:37.140Z,0
2017-01-01T01:09:45.829Z,0
2017-01-01T01:10:54.905Z,0
2017-01-01T01:12:03.968Z,0
2017-01-01T01:13:12.658Z,0
2017-01-01T01:14:21.717Z,0
2017-01-01T01:15:31.570Z,0
2017-01-01T01:16:40.274Z,0
2017-01-01T01:17:49.735Z,0
2017-01-01T01:18:58.813Z,0
2017-01-01T01:20:07.883Z,0
2017-01-01T01:21:17.728Z,0
2017-01-01T01:22:26.806Z,0
2017-01-01T01:23:35.481Z,0
2017-01-01T01:24:44.155Z,0
2017-01-01T01:25:53.214Z,0
2017-01-01T01:27:03.125Z,0
2017-01-01T01:28:12.203Z,0
2017-01-01T01:29:21.270Z,0
2017-01-01T01:30:30.725Z,0
2017-01-01T01:31:39.403Z,0
2017-01-01T01:32:48.870Z,0
2017-01-01T01:33:58.324Z,0
2017-01-01T01:35:08.199Z,0
2017-01-01T01:36:17.278Z,0
2017-01-01T01:37:26.743Z,0
2017-01-01T01:38:35.428Z,0
2017-01-01T01:39:44.506Z,0
2017-01-01T01:40:53.591Z,0
2017-01-01T01:42:02.656Z,0
2017-01-01T01:43:11.345Z,0
2017-01-01T01:44:20.017Z,0
2017-01-01T01:45:29.081Z,0
2017-01-01T01:46:38.444Z,0
2017-01-01T01:47:47.907Z,0
2017-01-01T01:48:56.976Z,0
2017-01-01T01:50:06.438Z,0
2017-01-01T01:51:15.519Z,0
2017-01-01T01:52:24.977Z,0
2017-01-01T01:53:34.067Z,0
2017-01-01T01:54:42.751Z,0
2017-01-01T01:55:51.435Z,0
2017-01-01T01:57:00.920Z,0
2017-01-01T01:58:10.050Z,0
2017-01-01T01:59:19.133Z,0
2017-01-01T02:00:27.824Z,0
2017-01-01T02:01:36.501Z,0
2017-01-01T02:02:45.186Z,0
2017-01-01T02:03:54.268Z,0
2017-01-01T02:05:03.758Z,0
2017-01-01T02:06:12.836Z,0
2017-01-01T02:07:22.295Z,0
2017-01-01T02:08:31.753Z,0
2017-01-01T02:09:40.854Z,0
2017-01-01T02:10:50.719Z,0
2017-01-01T02:11:59.817Z,0
2017-01-01T02:13:08.495Z,0
2017-01-01T02:14:17.559Z,0
2017-01-01T02:15:26.614Z,0
2017-01-01T02:16:36.378Z,0
2017-01-01T02:17:45.449Z,0
2017-01-01T02:18:55.284Z,0
2017-01-01T02:20:04.744Z,0
2017-01-01T02:21:14.213Z,0
2017-01-01T02:22:24.074Z,0
2017-01-01T02:23:32.809Z,0
2017-01-01T02:24:41.880Z,0
2017-01-01T02:25:50.564Z,0
2017-01-01T02:27:00.021Z,0
2017-01-01T02:28:09.472Z,0
2017-01-01T02:29:18.152Z,0
2017-01-01T02:30:27.227Z,0
2017-01-01T02:31:35.911Z,0
2017-01-01T02:32:45.395Z,0
2017-01-01T02:33:55.247Z,0
2017-01-01T02:35:04.320Z,0
2017-01-01T02:36:13.395Z,0
2017-01-01T02:37:22.466Z,0
2017-01-01T02:38:31.537Z,0
2017-01-01T02:39:40.637Z,0
2017-01-01T02:40:50.513Z,0
2017-01-01T02:42:00.354Z,0
2017-01-01T02:43:09.030Z,0
2017-01-01T02:44:17.717Z,0
2017-01-01T02:45:27.335Z,0
2017-01-01T02:46:36.791Z,0
2017-01-01T02:47:46.241Z,0
2017-01-01T02:48:56.099Z,0
2017-01-01T02:50:04.768Z,0
2017-01-01T02:51:13.449Z,0
2017-01-01T02:52:22.134Z,0
2017-01-01T02:53:32.007Z,0
2017-01-01T02:54:41.086Z,0
2017-01-01T02:55:50.543Z,0
2017-01-01T02:56:59.226Z,0
2017-01-01T02:58:09.088Z,0
2017-01-01T02:59:18.550Z,0
2017-01-01T03:00:27.238Z,0
2017-01-01T03:01:36.302Z,0
2017-01-01T03:02:45.379Z,0
2017-01-01T03:03:54.462Z,0
2017-01-01T03:05:03.148Z,0
2017-01-01T03:06:11.828Z,0
2017-01-01T03:07:21.675Z,0
2017-01-01T03:08:30.762Z,0
2017-01-01T03:09:39.835Z,0
2017-01-01T03:10:48.525Z,0
2017-01-01T03:11:57.605Z,0
2017-01-01T03:13:06.314Z,0
2017-01-01T03:14:15.539Z,0
2017-01-01T03:15:24.609Z,0
2017-01-01T03:16:33.675Z,0
2017-01-01T03:17:42.763Z,0
2017-01-01T03:18:51.450Z,0
2017-01-01T03:20:00.134Z,0
2017-01-01T03:21:09.626Z,0
2017-01-01T03:22:19.078Z,0
2017-01-01T03:23:28.574Z,0
2017-01-01T03:24:37.672Z,0
2017-01-01T03:25:46.357Z,0
2017-01-01T03:26:56.217Z,0
2017-01-01T03:28:06.057Z,0
2017-01-01T03:29:15.525Z,0
2017-01-01T03:30:24.208Z,0
2017-01-01T03:31:33.668Z,0
2017-01-01T03:32:42.749Z,0
2017-01-01T03:33:51.432Z,0
2017-01-01T03:35:00.511Z,0
2017-01-01T03:36:09.969Z,0
2017-01-01T03:37:19.042Z,0
2017-01-01T03:38:28.120Z,0
2017-01-01T03:39:37.573Z,0
2017-01-01T03:40:47.045Z,0
2017-01-01T03:41:56.106Z,0
2017-01-01T03:43:05.566Z,0
2017-01-01T03:44:14.634Z,0
2017-01-01T03:45:23.709Z,0
2017-01-01T03:46:33.565Z,0
2017-01-01T03:47:42.241Z,0
2017-01-01T03:48:50.931Z,0
2017-01-01T03:50:00.395Z,0
2017-01-01T03:51:09.467Z,0
2017-01-01T03:52:19.350Z,0
2017-01-01T03:53:28.418Z,0
2017-01-01T03:54:37.480Z,0
2017-01-01T03:55:46.552Z,0
2017-01-01T03:56:56.012Z,0
2017-01-01T03:58:04.698Z,0
2017-01-01T03:59:14.156Z,0
2017-01-01T04:00:23.220Z,0
2017-01-01T04:01:32.297Z,0
2017-01-01T04:02:41.449Z,0
2017-01-01T04:03:51.298Z,0
2017-01-01T04:05:00.369Z,0
2017-01-01T04:06:09.047Z,0
2017-01-01T04:07:18.900Z,0
2017-01-01T04:08:27.966Z,0
2017-01-01T04:09:37.432Z,0
2017-01-01T04:10:46.495Z,0
2017-01-01T04:11:55.583Z,0
2017-01-01T04:13:04.260Z,0
2017-01-01T04:14:13.317Z,0
2017-01-01T04:15:22.398Z,0
2017-01-01T04:16:31.842Z,0
2017-01-01T04:17:41.703Z,0
2017-01-01T04:18:50.383Z,0
2017-01-01T04:20:00.231Z,0
2017-01-01T04:21:10.126Z,0
2017-01-01T04:22:18.792Z,0
2017-01-01T04:23:27.472Z,0
2017-01-01T04:24:36.922Z,0
2017-01-01T04:25:46.373Z,0
2017-01-01T04:26:55.039Z,0
2017-01-01T04:28:04.102Z,0
2017-01-01T04:29:12.790Z,0
2017-01-01T04:30:21.851Z,0
2017-01-01T04:31:31.689Z,0
2017-01-01T04:32:40.745Z,0
2017-01-01T04:33:49.805Z,0
2017-01-01T04:34:59.260Z,0
2017-01-01T04:36:08.327Z,0
2017-01-01T04:37:17.398Z,0
2017-01-01T04:38:26.467Z,0
2017-01-01T04:39:35.926Z,0
2017-01-01T04:40:45.376Z,0
2017-01-01T04:41:54.442Z,0
2017-01-01T04:43:03.496Z,0
2017-01-01T04:44:12.589Z,0
2017-01-01T04:45:22.039Z,0
2017-01-01T04:46:30.703Z,0
2017-01-01T04:47:39.774Z,0
2017-01-01T04:48:49.225Z,0
2017-01-01T04:49:58.281Z,0
2017-01-01T04:51:06.979Z,0
2017-01-01T04:52:16.051Z,0
2017-01-01T04:53:25.126Z,0
2017-01-01T04:54:34.973Z,0
2017-01-01T04:55:43.652Z,0
2017-01-01T04:56:52.326Z,0
2017-01-01T04:58:01.793Z,0
2017-01-01T04:59:10.854Z,0
2017-01-01T05:00:19.918Z,0
2017-01-01T05:01:28.973Z,0
2017-01-01T05:02:37.664Z,0
2017-01-01T05:03:46.719Z,0
2017-01-01T05:04:55.801Z,0
2017-01-01T05:06:04.875Z,0
2017-01-01T05:07:14.328Z,0
2017-01-01T05:08:23.448Z,0
2017-01-01T05:09:32.119Z,0
2017-01-01T05:10:41.202Z,0
2017-01-01T05:11:51.039Z,0
2017-01-01T05:13:00.116Z,0
2017-01-01T05:14:08.786Z,0
2017-01-01T05:15:17.854Z,0
2017-01-01T05:16:26.942Z,0
2017-01-01T05:17:36.387Z,0
2017-01-01T05:18:45.847Z,0
2017-01-01T05:19:55.682Z,0
2017-01-01T05:21:04.363Z,0
2017-01-01T05:22:13.813Z,0
2017-01-01T05:23:23.268Z,0
2017-01-01T05:24:31.952Z,0
2017-01-01T05:25:40.620Z,0
2017-01-01T05:26:49.682Z,0
2017-01-01T05:27:59.138Z,0
2017-01-01T05:29:08.210Z,0
2017-01-01T05:30:18.049Z,0
2017-01-01T05:31:27.503Z,0
2017-01-01T05:32:36.189Z,0
2017-01-01T05:33:45.249Z,0
2017-01-01T05:34:53.966Z,0
2017-01-01T05:36:02.631Z,0
2017-01-01T05:37:12.088Z,0
2017-01-01T05:38:21.533Z,0
2017-01-01T05:39:30.596Z,0
2017-01-01T05:40:39.274Z,0
2017-01-01T05:41:47.950Z,0
2017-01-01T05:42:57.412Z,0
2017-01-01T05:44:06.097Z,0
2017-01-01T05:45:15.557Z,0
2017-01-01T05:46:24.617Z,0
2017-01-01T05:47:34.080Z,0
2017-01-01T05:48:43.158Z,0
2017-01-01T05:49:52.619Z,0
2017-01-01T05:51:02.075Z,0
2017-01-01T05:52:12.312Z,0
2017-01-01T05:53:21.761Z,0
2017-01-01T05:54:30.432Z,0
2017-01-01T05:55:39.879Z,0
2017-01-01T05:56:48.943Z,0
2017-01-01T05:57:58.394Z,0
2017-01-01T05:59:07.842Z,0
2017-01-01T06:00:16.904Z,0
2017-01-01T06:01:26.355Z,0
2017-01-01T06:02:35.797Z,0
2017-01-01T06:03:45.248Z,0
2017-01-01T06:04:54.320Z,0
2017-01-01T06:06:03.387Z,0
2017-01-01T06:07:12.063Z,0
2017-01-01T06:08:21.136Z,0
2017-01-01T06:09:29.805Z,0
2017-01-01T06:10:38.483Z,0
2017-01-01T06:11:47.555Z,0
2017-01-01T06:12:56.627Z,0
2017-01-01T06:14:05.693Z,0
2017-01-01T06:15:15.160Z,0
2017-01-01T06:16:24.320Z,0
2017-01-01T06:17:33.438Z,0
2017-01-01T06:18:42.800Z,0
2017-01-01T06:19:52.661Z,0
2017-01-01T06:21:01.339Z,0
2017-01-01T06:22:10.800Z,0
2017-01-01T06:23:19.886Z,0
2017-01-01T06:24:28.983Z,0
2017-01-01T06:25:38.459Z,0
2017-01-01T06:26:47.141Z,0
2017-01-01T06:27:56.242Z,0
2017-01-01T06:29:05.321Z,0
2017-01-01T06:30:13.997Z,0
2017-01-01T06:31:23.461Z,0
2017-01-01T06:32:32.924Z,0
2017-01-01T06:33:42.378Z,0
2017-01-01T06:34:51.453Z,0
2017-01-01T06:36:01.331Z,0
2017-01-01T06:37:10.787Z,0
2017-01-01T06:38:19.458Z,0
2017-01-01T06:39:28.511Z,0
2017-01-01T06:40:37.185Z,0
2017-01-01T06:41:45.852Z,0
2017-01-01T06:42:54.520Z,0
2017-01-01T06:44:03.582Z,0
2017-01-01T06:45:13.812Z,0
2017-01-01T06:46:22.877Z,0
2017-01-01T06:47:31.933Z,0
2017-01-01T06:48:41.004Z,0
2017-01-01T06:49:50.083Z,0
2017-01-01T06:50:59.551Z,0
2017-01-01T06:52:08.221Z,0
2017-01-01T06:53:16.919Z,0
2017-01-01T06:54:26.362Z,0
2017-01-01T06:55:35.429Z,0
2017-01-01T06:56:44.887Z,0
2017-01-01T06:57:53.958Z,0
2017-01-01T06:59:02.640Z,0
2017-01-01T07:00:11.705Z,0
2017-01-01T07:01:20.767Z,0
2017-01-01T07:02:30.220Z,0
2017-01-01T07:03:39.677Z,0
2017-01-01T07:04:49.144Z,0
2017-01-01T07:05:58.197Z,0
2017-01-01T07:07:06.871Z,0
2017-01-01T07:08:15.938Z,0
2017-01-01T07:09:24.993Z,0
2017-01-01T07:10:33.670Z,4
2017-01-01T07:11:42.347Z,4
2017-01-01T07:12:51.431Z,0
2017-01-01T07:14:00.487Z,4
2017-01-01T07:15:09.945Z,4
2017-01-01T07:16:19.017Z,4
2017-01-01T07:17:28.481Z,4
2017-01-01T07:18:37.540Z,4
2017-01-01T07:19:46.219Z,8
2017-01-01T07:20:55.276Z,4
2017-01-01T07:22:03.958Z,8
2017-01-01T07:23:13.020Z,8
2017-01-01T07:24:22.079Z,12
2017-01-01T07:25:31.149Z,12
2017-01-01T07:26:40.214Z,12
2017-01-01T07:27:48.886Z,16
2017-01-01T07:28:57.636Z,12
2017-01-01T07:30:07.121Z,16
2017-01-01T07:31:16.185Z,16
2017-01-01T07:32:24.858Z,20
2017-01-01T07:33:33.914Z,20
2017-01-01T07:34:42.988Z,24
2017-01-01T07:35:52.077Z,24
2017-01-01T07:37:01.565Z,28
2017-01-01T07:38:10.642Z,32
2017-01-01T07:39:19.466Z,36
2017-01-01T07:40:28.147Z,36
2017-01-01T07:41:37.234Z,40
2017-01-01T07:42:46.681Z,44
2017-01-01T07:43:55.738Z,52
2017-01-01T07:45:05.197Z,52
2017-01-01T07:46:14.585Z,60
2017-01-01T07:47:23.257Z,68
2017-01-01T07:48:31.933Z,72
2017-01-01T07:49:41.395Z,76
2017-01-01T07:50:50.079Z,84
2017-01-01T07:51:59.147Z,92
2017-01-01T07:53:07.833Z,100
2017-01-01T07:54:16.898Z,108
2017-01-01T07:55:25.562Z,116
2017-01-01T07:56:34.273Z,124
2017-01-01T07:57:44.120Z,128
2017-01-01T07:58:53.206Z,136
2017-01-01T08:00:01.885Z,144
2017-01-01T08:01:10.569Z,148
2017-01-01T08:02:20.016Z,152
2017-01-01T08:03:29.469Z,152
2017-01-01T08:04:38.938Z,160
2017-01-01T08:05:48.439Z,168
2017-01-01T08:06:57.133Z,184
2017-01-01T08:08:05.816Z,196
2017-01-01T08:09:15.296Z,204
2017-01-01T08:10:25.149Z,200
2017-01-01T08:11:33.824Z,204
2017-01-01T08:12:42.912Z,212
2017-01-01T08:13:51.980Z,232
2017-01-01T08:15:01.044Z,240
2017-01-01T08:16:10.496Z,260
2017-01-01T08:17:19.173Z,268
2017-01-01T08:18:28.629Z,280
2017-01-01T08:19:37.691Z,300
2017-01-01T08:20:46.435Z,332
2017-01-01T08:21:55.123Z,376
2017-01-01T08:23:03.802Z,400
2017-01-01T08:24:12.478Z,412
2017-01-01T08:25:21.542Z,408
2017-01-01T08:26:30.210Z,412
2017-01-01T08:27:40.067Z,424
2017-01-01T08:28:48.779Z,420
2017-01-01T08:29:57.457Z,404
2017-01-01T08:31:06.914Z,400
2017-01-01T08:32:16.756Z,396
2017-01-01T08:33:26.218Z,396
2017-01-01T08:34:35.687Z,396
2017-01-01T08:35:44.779Z,396
2017-01-01T08:36:53.461Z,404
2017-01-01T08:38:03.325Z,404
2017-01-01T08:39:13.232Z,408
2017-01-01T08:40:21.912Z,416
2017-01-01T08:41:31.767Z,416
2017-01-01T08:42:40.848Z,420
2017-01-01T08:43:49.915Z,432
2017-01-01T08:44:58.590Z,432
2017-01-01T08:46:08.043Z,436
2017-01-01T08:47:17.106Z,444
2017-01-01T08:48:26.172Z,448
2017-01-01T08:49:34.842Z,448
2017-01-01T08:50:44.293Z,456
2017-01-01T08:51:53.740Z,456
2017-01-01T08:53:02.446Z,460
2017-01-01T08:54:11.887Z,464
2017-01-01T08:55:20.575Z,464
2017-01-01T08:56:29.255Z,472
2017-01-01T08:57:38.313Z,472
2017-01-01T08:58:48.148Z,472
2017-01-01T08:59:56.821Z,476
2017-01-01T09:01:05.905Z,488
2017-01-01T09:02:14.614Z,488
2017-01-01T09:03:23.689Z,492
2017-01-01T09:04:33.926Z,488
2017-01-01T09:05:42.997Z,496
2017-01-01T09:06:52.066Z,496
2017-01-01T09:08:00.802Z,496
2017-01-01T09:09:09.487Z,504
2017-01-01T09:10:18.558Z,500
2017-01-01T09:11:27.627Z,504
2017-01-01T09:12:36.695Z,508
2017-01-01T09:13:45.750Z,508
2017-01-01T09:14:54.446Z,508
2017-01-01T09:16:03.901Z,512
2017-01-01T09:17:12.971Z,512
2017-01-01T09:18:22.053Z,516
2017-01-01T09:19:31.120Z,516
2017-01-01T09:20:40.571Z,512
2017-01-01T09:21:49.256Z,516
2017-01-01T09:22:59.100Z,524
2017-01-01T09:24:07.780Z,524
2017-01-01T09:25:17.280Z,524
2017-01-01T09:26:26.343Z,524
2017-01-01T09:27:35.446Z,528
2017-01-01T09:28:44.508Z,532
2017-01-01T09:29:53.233Z,532
2017-01-01T09:31:02.302Z,528
2017-01-01T09:32:11.758Z,532
2017-01-01T09:33:21.204Z,544
2017-01-01T09:34:30.658Z,544
2017-01-01T09:35:40.103Z,544
2017-01-01T09:36:48.770Z,544
2017-01-01T09:37:57.446Z,548
2017-01-01T09:39:06.502Z,556
2017-01-01T09:40:15.600Z,544
2017-01-01T09:41:24.297Z,548
2017-01-01T09:42:33.371Z,552
2017-01-01T09:43:42.438Z,548
2017-01-01T09:44:51.885Z,544
2017-01-01T09:46:00.572Z,540
2017-01-01T09:47:09.246Z,548
2017-01-01T09:48:17.927Z,552
2017-01-01T09:49:26.601Z,552
2017-01-01T09:50:35.274Z,548
2017-01-01T09:51:43.940Z,540
2017-01-01T09:52:53.390Z,544
2017-01-01T09:54:02.853Z,544
2017-01-01T09:55:11.958Z,548
2017-01-01T09:56:21.012Z,544
2017-01-01T09:57:30.072Z,544
2017-01-01T09:58:39.184Z,540
2017-01-01T09:59:47.852Z,536
2017-01-01T10:00:56.643Z,540
2017-01-01T10:02:05.713Z,536
2017-01-01T10:03:15.177Z,540
2017-01-01T10:04:24.308Z,544
2017-01-01T10:05:33.386Z,540
2017-01-01T10:06:42.154Z,540
2017-01-01T10:07:51.299Z,536
2017-01-01T10:09:00.832Z,540
2017-01-01T10:10:09.518Z,540
2017-01-01T10:11:18.987Z,536
2017-01-01T10:12:27.760Z,532
2017-01-01T10:13:36.572Z,528
2017-01-01T10:14:45.635Z,528
2017-01-01T10:15:54.714Z,532
2017-01-01T10:17:03.804Z,532
2017-01-01T10:18:13.661Z,528
2017-01-01T10:19:22.783Z,528
2017-01-01T10:20:31.865Z,528
2017-01-01T10:21:40.959Z,524
2017-01-01T10:22:49.690Z,532
2017-01-01T10:23:58.776Z,524
2017-01-01T10:25:08.635Z,520
2017-01-01T10:26:17.743Z,528
2017-01-01T10:27:26.812Z,528
2017-01-01T10:28:35.901Z,524
2017-01-01T10:29:45.384Z,528
2017-01-01T10:30:54.447Z,524
2017-01-01T10:32:03.548Z,528
2017-01-01T10:33:13.018Z,532
2017-01-01T10:34:21.724Z,528
2017-01-01T10:35:30.826Z,532
2017-01-01T10:36:39.974Z,528
2017-01-01T10:37:49.441Z,528
2017-01-01T10:38:58.138Z,520
2017-01-01T10:40:07.223Z,520
2017-01-01T10:41:16.350Z,520
2017-01-01T10:42:25.061Z,516
2017-01-01T10:43:33.744Z,516
2017-01-01T10:44:42.875Z,516
2017-01-01T10:45:51.563Z,520
2017-01-01T10:47:00.660Z,516
2017-01-01T10:48:09.760Z,520
2017-01-01T10:49:18.492Z,524
2017-01-01T10:50:27.973Z,524
2017-01-01T10:51:37.111Z,524
2017-01-01T10:52:46.228Z,520
2017-01-01T10:53:55.324Z,520
2017-01-01T10:55:04.465Z,524
2017-01-01T10:56:13.563Z,520
2017-01-01T10:57:22.646Z,520
2017-01-01T10:58:31.378Z,520
2017-01-01T10:59:40.075Z,520
2017-01-01T11:00:49.183Z,520
2017-01-01T11:01:57.863Z,520
2017-01-01T11:03:07.389Z,520
2017-01-01T11:04:16.469Z,516
2017-01-01T11:05:25.968Z,516
2017-01-01T11:06:35.042Z,516
2017-01-01T11:07:43.771Z,520
2017-01-01T11:08:52.515Z,524
2017-01-01T11:10:02.026Z,524
2017-01-01T11:11:11.509Z,528
2017-01-01T11:12:20.609Z,524
2017-01-01T11:13:29.324Z,520
2017-01-01T11:14:38.777Z,520
2017-01-01T11:15:47.866Z,520
2017-01-01T11:16:56.933Z,520
2017-01-01T11:18:06.429Z,520
2017-01-01T11:19:15.906Z,516
2017-01-01T11:20:25.011Z,520
2017-01-01T11:21:34.076Z,524
2017-01-01T11:22:43.944Z,520
2017-01-01T11:23:53.411Z,520
2017-01-01T11:25:02.904Z,528
2017-01-01T11:26:11.601Z,536
2017-01-01T11:27:21.071Z,556
2017-01-01T11:28:30.566Z,572
2017-01-01T11:29:39.943Z,572
2017-01-01T11:30:49.053Z,584
2017-01-01T11:31:58.530Z,584
2017-01-01T11:33:07.613Z,580
2017-01-01T11:34:16.313Z,584
2017-01-01T11:35:25.000Z,584
2017-01-01T11:36:34.524Z,580
2017-01-01T11:37:43.994Z,580
2017-01-01T11:38:53.088Z,580
2017-01-01T11:40:02.567Z,580
2017-01-01T11:41:12.049Z,512
2017-01-01T11:42:20.753Z,496
2017-01-01T11:43:29.834Z,496
2017-01-01T11:44:38.552Z,500
2017-01-01T11:45:47.251Z,496
2017-01-01T11:46:56.408Z,500
2017-01-01T11:48:05.113Z,496
2017-01-01T11:49:13.815Z,500
2017-01-01T11:50:22.897Z,500
2017-01-01T11:51:32.372Z,496
2017-01-01T11:52:41.834Z,500
2017-01-01T11:53:50.537Z,496
2017-01-01T11:54:59.250Z,500
2017-01-01T11:56:08.332Z,496
2017-01-01T11:57:17.017Z,500
2017-01-01T11:58:26.079Z,500
2017-01-01T11:59:35.158Z,500
2017-01-01T12:00:43.852Z,504
2017-01-01T12:01:52.927Z,504
2017-01-01T12:03:02.007Z,500
2017-01-01T12:04:11.091Z,500
2017-01-01T12:05:20.559Z,504
2017-01-01T12:06:29.625Z,504
2017-01-01T12:07:38.702Z,500
2017-01-01T12:08:47.783Z,500
2017-01-01T12:09:56.847Z,500
2017-01-01T12:11:05.528Z,500
2017-01-01T12:12:14.620Z,500
2017-01-01T12:13:23.679Z,500
2017-01-01T12:14:32.381Z,500
2017-01-01T12:15:42.268Z,500
2017-01-01T12:16:51.746Z,500
2017-01-01T12:18:01.200Z,500
2017-01-01T12:19:10.683Z,500
2017-01-01T12:20:19.371Z,500
2017-01-01T12:21:28.464Z,500
2017-01-01T12:22:37.941Z,500
2017-01-01T12:23:47.006Z,500
2017-01-01T12:24:55.913Z,500
2017-01-01T12:26:05.456Z,500
2017-01-01T12:27:15.051Z,500
2017-01-01T12:28:23.850Z,496
2017-01-01T12:29:32.923Z,496
2017-01-01T12:30:42.390Z,496
2017-01-01T12:31:51.456Z,500
2017-01-01T12:33:00.528Z,496
2017-01-01T12:34:09.593Z,496
2017-01-01T12:35:18.687Z,496
2017-01-01T12:36:27.763Z,496
2017-01-01T12:37:36.474Z,496
2017-01-01T12:38:45.927Z,496
2017-01-01T12:39:55.005Z,496
2017-01-01T12:41:04.476Z,496
2017-01-01T12:42:13.153Z,496
2017-01-01T12:43:21.846Z,496
2017-01-01T12:44:30.956Z,496
2017-01-01T12:45:40.032Z,496
2017-01-01T12:46:49.182Z,496
2017-01-01T12:47:59.068Z,496
2017-01-01T12:49:08.527Z,516
2017-01-01T12:50:17.616Z,492
2017-01-01T12:51:27.140Z,488
2017-01-01T12:52:37.402Z,492
2017-01-01T12:53:46.894Z,492
2017-01-01T12:54:56.350Z,492
2017-01-01T12:56:05.037Z,492
2017-01-01T12:57:13.726Z,492
2017-01-01T12:58:23.574Z,492
2017-01-01T12:59:32.672Z,488
2017-01-01T13:00:42.922Z,488
2017-01-01T13:01:51.603Z,488
2017-01-01T13:03:00.729Z,488
2017-01-01T13:04:09.858Z,488
2017-01-01T13:05:18.932Z,488
2017-01-01T13:06:28.003Z,488
2017-01-01T13:07:37.085Z,488
2017-01-01T13:08:46.546Z,484
2017-01-01T13:09:56.410Z,476
2017-01-01T13:11:05.880Z,472
2017-01-01T13:12:15.954Z,460
2017-01-01T13:13:25.155Z,456
2017-01-01T13:14:33.900Z,452
2017-01-01T13:15:43.386Z,456
2017-01-01T13:16:53.459Z,472
2017-01-01T13:18:02.228Z,476
2017-01-01T13:19:11.037Z,476
2017-01-01T13:20:20.621Z,476
2017-01-01T13:21:29.706Z,476
2017-01-01T13:22:38.456Z,468
2017-01-01T13:23:47.949Z,452
2017-01-01T13:24:56.708Z,440
2017-01-01T13:26:06.021Z,436
2017-01-01T13:27:15.475Z,428
2017-01-01T13:28:24.536Z,420
2017-01-01T13:29:33.604Z,420
2017-01-01T13:30:43.416Z,408
2017-01-01T13:31:52.566Z,404
2017-01-01T13:33:02.021Z,400
2017-01-01T13:34:10.760Z,408
2017-01-01T13:35:19.627Z,420
2017-01-01T13:36:28.447Z,428
2017-01-01T13:37:37.523Z,428
2017-01-01T13:38:47.048Z,432
2017-01-01T13:39:56.228Z,428
2017-01-01T13:41:04.949Z,428
2017-01-01T13:42:14.023Z,432
2017-01-01T13:43:23.479Z,436
2017-01-01T13:44:32.559Z,428
2017-01-01T13:45:41.252Z,428
2017-01-01T13:46:50.409Z,432
2017-01-01T13:47:59.079Z,424
2017-01-01T13:49:08.631Z,412
2017-01-01T13:50:18.154Z,412
2017-01-01T13:51:27.628Z,412
2017-01-01T13:52:37.085Z,404
2017-01-01T13:53:46.556Z,412
2017-01-01T13:54:56.182Z,420
2017-01-01T13:56:06.153Z,424
2017-01-01T13:57:14.904Z,416
2017-01-01T13:58:24.004Z,404
2017-01-01T13:59:33.132Z,396
2017-01-01T14:00:41.821Z,388
2017-01-01T14:01:51.276Z,384
2017-01-01T14:03:00.368Z,380
2017-01-01T14:04:09.427Z,376
2017-01-01T14:05:19.282Z,376
2017-01-01T14:06:27.967Z,388
2017-01-01T14:07:37.427Z,388
2017-01-01T14:08:46.101Z,396
2017-01-01T14:09:54.785Z,404
2017-01-01T14:11:03.467Z,404
2017-01-01T14:12:13.313Z,404
2017-01-01T14:13:22.773Z,404
2017-01-01T14:14:32.247Z,408
2017-01-01T14:15:42.485Z,416
2017-01-01T14:16:52.333Z,416
2017-01-01T14:18:01.008Z,412
2017-01-01T14:19:10.075Z,412
2017-01-01T14:20:18.760Z,412
2017-01-01T14:21:28.229Z,416
2017-01-01T14:22:37.294Z,420
2017-01-01T14:23:45.959Z,416
2017-01-01T14:24:54.643Z,412
2017-01-01T14:26:03.705Z,416
2017-01-01T14:27:12.782Z,416
2017-01-01T14:28:22.697Z,424
2017-01-01T14:29:31.639Z,428
2017-01-01T14:30:40.934Z,436
2017-01-01T14:31:50.801Z,444
2017-01-01T14:33:00.379Z,444
2017-01-01T14:34:10.929Z,436
2017-01-01T14:35:19.730Z,428
2017-01-01T14:36:28.797Z,424
2017-01-01T14:37:37.472Z,416
2017-01-01T14:38:46.552Z,412
2017-01-01T14:39:55.686Z,408
2017-01-01T14:41:04.370Z,400
2017-01-01T14:42:13.344Z,392
2017-01-01T14:43:23.273Z,384
2017-01-01T14:44:33.850Z,372
2017-01-01T14:45:42.915Z,356
2017-01-01T14:46:51.589Z,344
2017-01-01T14:48:00.665Z,332
2017-01-01T14:49:10.144Z,316
2017-01-01T14:50:19.216Z,304
2017-01-01T14:51:28.315Z,296
2017-01-01T14:52:37.984Z,292
2017-01-01T14:53:46.779Z,284
2017-01-01T14:54:57.619Z,280
2017-01-01T14:56:06.380Z,276
2017-01-01T14:57:15.056Z,268
2017-01-01T14:58:24.163Z,260
2017-01-01T14:59:32.830Z,252
2017-01-01T15:00:41.893Z,244
2017-01-01T15:01:50.589Z,236
2017-01-01T15:03:00.440Z,228
2017-01-01T15:04:09.519Z,220
2017-01-01T15:05:18.601Z,212
2017-01-01T15:06:28.053Z,204
2017-01-01T15:07:37.139Z,196
2017-01-01T15:08:45.870Z,184
2017-01-01T15:09:54.551Z,176
2017-01-01T15:11:03.628Z,164
2017-01-01T15:12:12.687Z,156
2017-01-01T15:13:22.139Z,148
2017-01-01T15:14:30.826Z,140
2017-01-01T15:15:39.946Z,132
2017-01-01T15:16:48.628Z,128
2017-01-01T15:17:57.694Z,120
2017-01-01T15:19:07.545Z,116
2017-01-01T15:20:16.612Z,108
2017-01-01T15:21:26.466Z,100
2017-01-01T15:22:35.540Z,92
2017-01-01T15:23:44.996Z,84
2017-01-01T15:24:53.674Z,80
2017-01-01T15:26:02.756Z,76
2017-01-01T15:27:11.817Z,68
2017-01-01T15:28:21.271Z,64
2017-01-01T15:29:30.339Z,60
2017-01-01T15:30:39.007Z,56
2017-01-01T15:31:48.070Z,48
2017-01-01T15:32:56.735Z,48
2017-01-01T15:34:05.803Z,44
2017-01-01T15:35:14.864Z,44
2017-01-01T15:36:23.935Z,40
2017-01-01T15:37:32.612Z,36
2017-01-01T15:38:41.688Z,32
2017-01-01T15:39:50.371Z,32
2017-01-01T15:40:59.053Z,28
2017-01-01T15:42:07.739Z,28
2017-01-01T15:43:16.803Z,20
2017-01-01T15:44:25.879Z,20
2017-01-01T15:45:34.556Z,16
2017-01-01T15:46:44.416Z,16
2017-01-01T15:47:54.209Z,12
2017-01-01T15:49:03.272Z,12
2017-01-01T15:50:11.952Z,12
2017-01-01T15:51:20.680Z,8
2017-01-01T15:52:29.352Z,4
2017-01-01T15:53:38.798Z,4
2017-01-01T15:54:47.482Z,4
2017-01-01T15:55:56.551Z,4
2017-01-01T15:57:06.788Z,4
2017-01-01T15:58:15.475Z,0
2017-01-01T15:59:24.937Z,4
2017-01-01T16:00:34.778Z,0
2017-01-01T16:01:44.235Z,0
2017-01-01T16:02:53.312Z,0
2017-01-01T16:04:02.383Z,0
2017-01-01T16:05:11.461Z,0
2017-01-01T16:06:20.558Z,0
2017-01-01T16:07:30.010Z,0
2017-01-01T16:08:39.075Z,0
2017-01-01T16:09:48.522Z,0
2017-01-01T16:10:57.972Z,0
2017-01-01T16:12:07.047Z,0
2017-01-01T16:13:16.111Z,0
2017-01-01T16:14:25.555Z,0
2017-01-01T16:15:34.218Z,0
2017-01-01T16:16:43.287Z,0
2017-01-01T16:17:52.705Z,0
2017-01-01T16:19:01.768Z,0
2017-01-01T16:20:10.444Z,0
2017-01-01T16:21:19.516Z,0
2017-01-01T16:22:28.991Z,0
2017-01-01T16:23:38.065Z,0
2017-01-01T16:24:47.134Z,0
2017-01-01T16:25:56.205Z,0
2017-01-01T16:27:04.882Z,0